Time;durP1;ratioP1;P1;durP2;ratioP2;P2;SDS_P1;SDS_P2;PMS_P1;PMS_P2;Temp;Humidity;BMP_temperature;BMP_pressure;BME280_temperature;BME280_humidity;BME280_pressure;Samples;Min_cycle;Max_cycle;Signal;HPM_P1;HPM_P2
2023/05/12 00:01:57;;;;;;;8.40;5.27;;;11.40;99.90;;;;;;4995381;28;20073;-77
2023/05/12 00:04:22;;;;;;;7.77;5.13;;;11.40;99.90;;;;;;4993555;28;20367;-77
2023/05/12 00:06:48;;;;;;;8.17;5.30;;;11.40;99.90;;;;;;4994965;28;20100;-78
2023/05/12 00:09:14;;;;;;;8.03;5.60;;;11.40;99.90;;;;;;4993391;28;20085;-77
2023/05/12 00:11:39;;;;;;;7.73;5.07;;;11.40;99.90;;;;;;4994265;28;20081;-77
2023/05/12 00:14:05;;;;;;;7.80;4.87;;;11.40;99.90;;;;;;4994411;28;20046;-77
2023/05/12 00:16:31;;;;;;;8.10;5.00;;;11.40;99.90;;;;;;4994312;28;20096;-78
2023/05/12 00:18:57;;;;;;;8.03;5.50;;;11.40;99.90;;;;;;4994055;28;20325;-77
2023/05/12 00:21:22;;;;;;;7.70;5.20;;;11.40;99.90;;;;;;4994282;28;20048;-77
2023/05/12 00:23:48;;;;;;;8.77;5.87;;;11.40;99.90;;;;;;4993137;28;20054;-78
2023/05/12 00:26:16;;;;;;;9.47;5.77;;;11.50;99.90;;;;;;4991488;28;20077;-78
2023/05/12 00:28:42;;;;;;;9.60;6.50;;;11.50;99.90;;;;;;4994124;28;20050;-78
2023/05/12 00:31:07;;;;;;;10.63;7.47;;;11.50;99.90;;;;;;4994140;28;20296;-78
2023/05/12 00:33:33;;;;;;;11.47;7.70;;;11.50;99.90;;;;;;4993867;28;20054;-78
2023/05/12 00:36:02;;;;;;;10.63;7.33;;;11.50;99.90;;;;;;4994568;28;20494;-78
2023/05/12 00:38:28;;;;;;;8.90;6.53;;;11.50;99.90;;;;;;4993135;28;20141;-78
2023/05/12 00:40:54;;;;;;;9.47;6.80;;;11.50;99.90;;;;;;4992797;28;20424;-78
2023/05/12 00:43:20;;;;;;;9.07;6.33;;;11.50;99.90;;;;;;4994509;28;20046;-78
2023/05/12 00:45:46;;;;;;;9.67;7.10;;;11.50;99.90;;;;;;4993974;28;20050;-78
2023/05/12 00:48:13;;;;;;;10.37;6.23;;;11.50;99.90;;;;;;4993737;28;20077;-78
2023/05/12 00:50:39;;;;;;;9.37;6.33;;;11.50;99.90;;;;;;4992684;28;20312;-78
2023/05/12 00:53:05;;;;;;;9.17;6.27;;;11.50;99.90;;;;;;4994472;28;20297;-78
2023/05/12 00:55:32;;;;;;;10.10;6.13;;;11.50;99.90;;;;;;4993950;28;20426;-78
2023/05/12 00:57:58;;;;;;;10.17;6.17;;;11.50;99.90;;;;;;4993933;28;20285;-78
2023/05/12 01:00:24;;;;;;;10.17;7.30;;;11.50;99.90;;;;;;4993873;28;20292;-78
2023/05/12 01:02:50;;;;;;;12.50;8.67;;;11.50;99.90;;;;;;4992678;28;20361;-78
2023/05/12 01:05:15;;;;;;;14.30;11.00;;;11.50;99.90;;;;;;4993811;28;20479;-78
2023/05/12 01:07:42;;;;;;;21.13;12.40;;;11.50;99.90;;;;;;4993458;28;20046;-78
2023/05/12 01:10:18;;;;;;;14.97;10.90;;;11.50;99.90;;;;;;4993977;28;20390;-78
2023/05/12 01:12:43;;;;;;;17.47;11.70;;;11.50;99.90;;;;;;4992653;28;20633;-78
2023/05/12 01:15:10;;;;;;;19.90;12.60;;;11.50;99.90;;;;;;4993683;28;20372;-78
2023/05/12 01:17:37;;;;;;;17.37;12.47;;;11.50;99.90;;;;;;4993771;28;20042;-79
2023/05/12 01:20:06;;;;;;;19.63;12.50;;;11.50;99.90;;;;;;4992519;28;20289;-79
2023/05/12 01:22:32;;;;;;;18.37;12.40;;;11.50;99.90;;;;;;4993658;28;20285;-78
2023/05/12 01:25:01;;;;;;;18.73;13.30;;;11.50;99.90;;;;;;4994133;28;20285;-78
2023/05/12 01:27:28;;;;;;;21.23;12.70;;;11.50;99.90;;;;;;4993686;28;20294;-78
2023/05/12 01:29:57;;;;;;;25.90;12.30;;;11.60;99.90;;;;;;4993146;28;20404;-78
2023/05/12 01:32:22;;;;;;;20.10;13.53;;;11.50;99.90;;;;;;4992144;28;20289;-78
2023/05/12 01:34:49;;;;;;;21.37;13.57;;;11.50;99.90;;;;;;4993414;28;20365;-79
2023/05/12 01:37:15;;;;;;;20.70;13.30;;;11.60;99.90;;;;;;4994841;28;20046;-78
2023/05/12 01:39:41;;;;;;;21.07;14.13;;;11.50;99.90;;;;;;4996071;28;20761;-78
2023/05/12 01:42:07;;;;;;;24.33;13.70;;;11.50;99.90;;;;;;4996107;28;20281;-78
2023/05/12 01:44:33;;;;;;;21.33;13.93;;;11.50;99.90;;;;;;4997201;28;20055;-79
2023/05/12 01:47:00;;;;;;;23.60;14.33;;;11.50;99.90;;;;;;4996727;28;20289;-79
2023/05/12 01:49:26;;;;;;;25.80;14.70;;;11.50;99.90;;;;;;4997744;28;20382;-79
2023/05/12 01:51:52;;;;;;;23.70;16.00;;;11.50;99.90;;;;;;4996343;28;20290;-79
2023/05/12 01:54:18;;;;;;;21.60;14.17;;;11.60;99.90;;;;;;4996032;28;20061;-79
2023/05/12 01:56:44;;;;;;;25.03;16.23;;;11.60;99.90;;;;;;4996910;28;20529;-79
2023/05/12 01:59:10;;;;;;;25.10;15.10;;;11.60;99.90;;;;;;4996149;28;20313;-80
2023/05/12 02:01:36;;;;;;;29.80;16.63;;;11.60;99.90;;;;;;4996819;28;20054;-80
2023/05/12 02:04:03;;;;;;;24.50;16.53;;;11.60;99.90;;;;;;4995829;28;20285;-79
2023/05/12 02:06:30;;;;;;;26.87;16.73;;;11.60;99.90;;;;;;4996025;28;20046;-79
2023/05/12 02:08:56;;;;;;;24.70;16.83;;;11.60;99.90;;;;;;4996660;28;20770;-79
2023/05/12 02:11:22;;;;;;;26.63;16.80;;;11.60;99.90;;;;;;4996625;28;20286;-79
2023/05/12 02:13:47;;;;;;;26.13;18.00;;;11.60;99.90;;;;;;4996813;28;20634;-79
2023/05/12 02:16:13;;;;;;;26.50;19.37;;;11.60;99.90;;;;;;4996585;28;20042;-79
2023/05/12 02:18:39;;;;;;;29.40;19.43;;;11.60;99.90;;;;;;4996459;28;20054;-78
2023/05/12 02:21:06;;;;;;;27.90;19.13;;;11.60;99.90;;;;;;4996486;28;20122;-79
2023/05/12 02:23:32;;;;;;;32.80;19.63;;;11.60;99.90;;;;;;4995209;28;20046;-79
2023/05/12 02:25:57;;;;;;;33.60;20.00;;;11.60;99.90;;;;;;4996412;28;20290;-79
2023/05/12 02:28:23;;;;;;;35.50;19.73;;;11.60;99.90;;;;;;4996284;28;20340;-79
2023/05/12 02:30:51;;;;;;;34.37;20.33;;;11.70;99.90;;;;;;4994686;28;20057;-79
2023/05/12 02:33:19;;;;;;;36.97;22.20;;;11.60;99.90;;;;;;4995985;28;20133;-79
2023/05/12 02:35:45;;;;;;;32.97;21.23;;;11.60;99.90;;;;;;4996187;28;20290;-79
2023/05/12 02:38:11;;;;;;;32.83;20.60;;;11.60;99.90;;;;;;4995947;28;20297;-79
2023/05/12 02:40:37;;;;;;;35.13;21.80;;;11.70;99.90;;;;;;4996116;28;20762;-79
2023/05/12 02:43:03;;;;;;;34.17;20.23;;;11.60;99.90;;;;;;4994783;28;20312;-79
2023/05/12 02:45:28;;;;;;;36.80;20.43;;;11.60;99.90;;;;;;4994984;28;20108;-78
2023/05/12 02:47:54;;;;;;;35.17;20.47;;;11.60;99.90;;;;;;4995855;28;20069;-79
2023/05/12 02:50:20;;;;;;;36.37;21.27;;;11.70;99.90;;;;;;4994966;28;20125;-79
2023/05/12 02:52:46;;;;;;;41.27;22.20;;;11.70;99.90;;;;;;4995856;28;20053;-78
2023/05/12 02:55:12;;;;;;;38.73;22.73;;;11.70;99.90;;;;;;4995759;28;20054;-79
2023/05/12 02:57:38;;;;;;;44.10;23.10;;;11.70;99.90;;;;;;4995684;28;20286;-78
2023/05/12 03:00:05;;;;;;;42.00;25.03;;;11.70;99.90;;;;;;4995677;28;20042;-79
2023/05/12 03:02:35;;;;;;;42.80;22.97;;;11.70;99.90;;;;;;4995648;28;20042;-78
2023/05/12 03:05:01;;;;;;;42.23;24.17;;;11.70;99.90;;;;;;4995628;28;20297;-79
2023/05/12 03:07:27;;;;;;;44.97;24.87;;;11.70;99.90;;;;;;4994553;28;20813;-79
2023/05/12 03:09:53;;;;;;;42.57;25.03;;;11.70;99.90;;;;;;4995410;28;20328;-79
2023/05/12 03:12:18;;;;;;;44.10;25.23;;;11.80;99.90;;;;;;4996230;28;20046;-79
2023/05/12 03:14:44;;;;;;;45.23;25.17;;;11.70;99.90;;;;;;4995521;28;20471;-79
2023/05/12 03:17:10;;;;;;;49.80;25.97;;;11.70;99.90;;;;;;4995386;28;20336;-79
2023/05/12 03:19:36;;;;;;;45.43;25.50;;;11.70;99.90;;;;;;4995430;28;20050;-79
2023/05/12 03:22:02;;;;;;;51.70;28.37;;;11.80;99.90;;;;;;4995836;28;20046;-79
2023/05/12 03:24:28;;;;;;;47.00;24.43;;;11.70;99.90;;;;;;4994065;28;20293;-79
2023/05/12 03:26:54;;;;;;;44.90;25.87;;;11.80;99.90;;;;;;4995901;28;20153;-80
2023/05/12 03:29:21;;;;;;;41.67;24.47;;;11.80;99.90;;;;;;4995023;28;20728;-80
2023/05/12 03:31:46;;;;;;;44.70;24.23;;;11.80;99.90;;;;;;4995527;28;20050;-80
2023/05/12 03:34:12;;;;;;;45.43;25.27;;;11.80;99.90;;;;;;4995389;28;20312;-80
2023/05/12 03:36:39;;;;;;;43.67;25.33;;;11.70;99.90;;;;;;4994393;28;20059;-80
2023/05/12 03:39:07;;;;;;;48.90;25.23;;;11.80;99.90;;;;;;4995039;28;20050;-80
2023/05/12 03:41:33;;;;;;;53.87;25.03;;;11.80;99.90;;;;;;4994958;28;20373;-79
2023/05/12 03:43:59;;;;;;;43.13;24.10;;;11.80;99.90;;;;;;4994169;28;20380;-80
2023/05/12 03:46:25;;;;;;;46.17;24.97;;;11.80;99.90;;;;;;4994378;28;20501;-80
2023/05/12 03:48:51;;;;;;;44.77;24.80;;;11.80;99.90;;;;;;4994794;28;20046;-78
2023/05/12 03:51:16;;;;;;;50.67;24.97;;;11.80;99.90;;;;;;4977339;28;20054;-79
2023/05/12 03:53:45;;;;;;;52.17;26.87;;;11.80;99.90;;;;;;4994983;28;20416;-79
2023/05/12 03:56:11;;;;;;;48.53;26.13;;;11.80;99.90;;;;;;4994283;28;20386;-79
2023/05/12 03:58:36;;;;;;;48.53;25.07;;;11.80;99.90;;;;;;4994697;28;20285;-79
2023/05/12 04:01:02;;;;;;;47.33;24.37;;;11.80;99.90;;;;;;4994534;28;20057;-79
2023/05/12 04:03:28;;;;;;;47.17;24.93;;;11.80;99.90;;;;;;4994450;28;20120;-79
2023/05/12 04:06:01;;;;;;;44.67;25.27;;;11.80;99.90;;;;;;4994502;28;20305;-79
2023/05/12 04:08:27;;;;;;;51.03;24.63;;;11.80;99.90;;;;;;4993565;28;20282;-79
2023/05/12 04:10:58;;;;;;;48.07;25.67;;;11.90;99.90;;;;;;4994348;28;20396;-79
2023/05/12 04:13:24;;;;;;;45.37;25.23;;;11.90;99.90;;;;;;4995221;28;20356;-79
2023/05/12 04:15:50;;;;;;;47.63;25.77;;;11.90;99.90;;;;;;4994937;28;20284;-79
2023/05/12 04:18:16;;;;;;;49.93;25.77;;;11.90;99.90;;;;;;4994394;28;20669;-79
2023/05/12 04:20:43;;;;;;;48.97;26.33;;;11.90;99.90;;;;;;4977079;28;20486;-79
2023/05/12 04:23:09;;;;;;;49.43;26.40;;;11.90;99.90;;;;;;4994333;28;20331;-80
2023/05/12 04:25:39;;;;;;;46.20;24.73;;;11.90;99.90;;;;;;4993307;28;20294;-79
2023/05/12 04:28:05;;;;;;;53.33;27.10;;;11.90;99.90;;;;;;4993088;28;20051;-80
2023/05/12 04:30:31;;;;;;;43.63;23.73;;;12.00;99.90;;;;;;4994391;28;20352;-80
2023/05/12 04:32:57;;;;;;;45.20;24.30;;;12.00;99.90;;;;;;4994306;28;20377;-79
2023/05/12 04:35:22;;;;;;;47.53;25.93;;;12.00;99.90;;;;;;4993483;28;20065;-80
2023/05/12 04:37:48;;;;;;;47.27;25.57;;;12.00;99.90;;;;;;4993155;28;20052;-80
2023/05/12 04:40:14;;;;;;;45.20;25.73;;;12.00;99.90;;;;;;4993806;28;20451;-80
2023/05/12 04:42:40;;;;;;;48.87;26.07;;;12.00;99.90;;;;;;4994605;28;20076;-79
2023/05/12 04:45:06;;;;;;;38.13;23.73;;;12.00;99.90;;;;;;4994047;28;20046;-79
2023/05/12 04:47:32;;;;;;;45.00;25.97;;;12.10;99.90;;;;;;4992986;28;20545;-79
2023/05/12 04:49:58;;;;;;;46.57;24.00;;;12.10;99.90;;;;;;4993084;28;20294;-79
2023/05/12 04:52:24;;;;;;;46.33;24.57;;;12.00;99.90;;;;;;4993935;28;20053;-80
2023/05/12 04:54:50;;;;;;;48.83;25.13;;;12.10;99.90;;;;;;4994048;28;20430;-79
2023/05/12 04:57:15;;;;;;;42.60;24.70;;;12.10;99.90;;;;;;4993935;28;20093;-80
2023/05/12 04:59:42;;;;;;;47.47;24.67;;;12.10;99.90;;;;;;4994674;28;20126;-80
2023/05/12 05:02:11;;;;;;;49.50;26.17;;;12.10;99.90;;;;;;4992624;28;20074;-79
2023/05/12 05:04:37;;;;;;;48.77;25.03;;;12.20;99.90;;;;;;4994500;28;20277;-80
2023/05/12 05:07:03;;;;;;;49.10;24.00;;;12.20;99.90;;;;;;4992897;28;20289;-80
2023/05/12 05:09:29;;;;;;;45.87;22.97;;;12.20;99.90;;;;;;4976204;28;20125;-79
2023/05/12 05:11:55;;;;;;;41.67;24.27;;;12.20;99.90;;;;;;4993109;28;20046;-79
2023/05/12 05:14:21;;;;;;;44.87;24.27;;;12.20;99.90;;;;;;4997720;28;20050;-79
2023/05/12 05:16:47;;;;;;;44.80;24.43;;;12.20;99.90;;;;;;4997670;28;20093;-79
2023/05/12 05:19:13;;;;;;;41.70;24.00;;;12.30;99.90;;;;;;4997678;28;20282;-79
2023/05/12 05:21:39;;;;;;;47.70;26.90;;;12.30;99.90;;;;;;4980423;28;20292;-79
2023/05/12 05:24:05;;;;;;;48.70;26.50;;;12.30;99.90;;;;;;4981155;28;20282;-79
2023/05/12 05:26:31;;;;;;;47.07;24.47;;;12.30;99.90;;;;;;4996104;28;20038;-79
2023/05/12 05:28:57;;;;;;;46.97;25.00;;;12.40;99.90;;;;;;4996051;28;20054;-79
2023/05/12 05:31:23;;;;;;;43.13;24.73;;;12.40;99.90;;;;;;4997270;28;20049;-79
2023/05/12 05:33:48;;;;;;;42.70;25.37;;;12.40;99.90;;;;;;4996112;28;20064;-79
2023/05/12 05:36:15;;;;;;;45.27;25.27;;;12.50;99.90;;;;;;4997205;28;20482;-79
2023/05/12 05:38:41;;;;;;;47.90;28.07;;;12.50;99.90;;;;;;4997273;28;20050;-80
2023/05/12 05:41:07;;;;;;;41.30;25.43;;;12.50;99.90;;;;;;4997793;28;20281;-80
2023/05/12 05:43:32;;;;;;;40.43;24.67;;;12.50;99.90;;;;;;4979537;28;20046;-80
2023/05/12 05:45:59;;;;;;;42.37;25.53;;;12.50;99.90;;;;;;4997416;28;20046;-80
2023/05/12 05:48:25;;;;;;;43.60;24.80;;;12.60;99.90;;;;;;4996994;28;20038;-80
2023/05/12 05:50:51;;;;;;;46.73;26.63;;;12.60;99.90;;;;;;4996934;28;20298;-80
2023/05/12 05:53:19;;;;;;;40.57;24.37;;;12.60;99.90;;;;;;4997044;28;20290;-80
2023/05/12 05:55:46;;;;;;;40.43;24.53;;;12.60;99.90;;;;;;4997253;28;20356;-80
2023/05/12 05:58:12;;;;;;;46.10;25.37;;;12.70;99.90;;;;;;4996828;28;20282;-80
2023/05/12 06:00:37;;;;;;;39.50;24.53;;;12.70;99.90;;;;;;4996839;28;20344;-80
2023/05/12 06:03:03;;;;;;;45.20;24.57;;;12.70;99.90;;;;;;4996793;28;20042;-79
2023/05/12 06:05:29;;;;;;;44.13;24.53;;;12.70;99.90;;;;;;4996216;28;20054;-79
2023/05/12 06:07:54;;;;;;;37.43;23.20;;;12.80;99.90;;;;;;4996676;28;20153;-79
2023/05/12 06:10:20;;;;;;;34.83;23.47;;;12.80;99.90;;;;;;4995355;28;20050;-80
2023/05/12 06:12:46;;;;;;;35.27;23.27;;;12.80;99.90;;;;;;4995457;28;20050;-80
2023/05/12 06:15:12;;;;;;;39.43;25.20;;;12.80;99.90;;;;;;4996581;28;20344;-80
2023/05/12 06:17:38;;;;;;;43.00;24.50;;;12.80;99.90;;;;;;4996567;28;20129;-77
2023/05/12 06:20:05;;;;;;;38.63;24.83;;;12.80;99.90;;;;;;4996516;28;20050;-77
2023/05/12 06:22:32;;;;;;;36.53;23.77;;;12.80;99.90;;;;;;4996998;28;20053;-78
2023/05/12 06:24:57;;;;;;;39.77;25.80;;;12.80;99.90;;;;;;4994963;28;20776;-78
2023/05/12 06:27:23;;;;;;;35.97;24.40;;;12.90;99.90;;;;;;4996323;28;20277;-78
2023/05/12 06:29:50;;;;;;;35.90;24.73;;;12.90;99.90;;;;;;4996066;28;20467;-78
2023/05/12 06:32:16;;;;;;;37.63;24.37;;;12.90;99.90;;;;;;4996035;28;20109;-78
2023/05/12 06:34:42;;;;;;;38.80;25.57;;;12.90;99.90;;;;;;4996468;28;20657;-78
2023/05/12 06:37:08;;;;;;;38.87;26.27;;;12.90;99.90;;;;;;4996152;28;20147;-77
2023/05/12 06:39:33;;;;;;;38.63;24.97;;;13.00;99.90;;;;;;4995415;28;20053;-78
2023/05/12 06:41:59;;;;;;;40.40;26.07;;;13.00;99.90;;;;;;4996079;28;20046;-77
2023/05/12 06:44:25;;;;;;;36.77;24.00;;;13.00;99.90;;;;;;4995141;28;20378;-77
2023/05/12 06:46:51;;;;;;;40.20;24.77;;;13.00;99.90;;;;;;4994460;28;20050;-77
2023/05/12 06:49:17;;;;;;;37.93;24.30;;;13.10;99.90;;;;;;4995878;28;20046;-78
2023/05/12 06:51:43;;;;;;;39.97;24.17;;;13.10;99.90;;;;;;4994554;28;20405;-78
2023/05/12 06:54:08;;;;;;;36.77;24.97;;;13.20;99.90;;;;;;4995915;28;20051;-77
2023/05/12 06:56:34;;;;;;;41.03;25.00;;;13.20;99.90;;;;;;4995467;28;20053;-77
2023/05/12 06:59:01;;;;;;;35.63;24.70;;;13.30;99.90;;;;;;4995839;28;20441;-77
2023/05/12 07:01:31;;;;;;;37.93;24.87;;;13.30;99.90;;;;;;4995045;28;20047;-75
2023/05/12 07:03:57;;;;;;;39.53;25.30;;;13.40;99.90;;;;;;4995944;28;20281;-76
2023/05/12 07:06:24;;;;;;;43.40;24.67;;;13.50;99.90;;;;;;4994232;28;20321;-81
2023/05/12 07:08:49;;;;;;;41.70;25.03;;;13.50;99.90;;;;;;4995925;28;20421;-77
2023/05/12 07:11:19;;;;;;;35.83;24.27;;;13.50;99.90;;;;;;4979189;28;20398;-78
2023/05/12 07:13:51;;;;;;;36.83;24.63;;;13.50;99.90;;;;;;4995533;28;20046;-80
2023/05/12 07:16:18;;;;;;;35.97;23.83;;;13.60;99.90;;;;;;4996011;28;20368;-81
2023/05/12 07:18:44;;;;;;;32.83;23.33;;;13.60;99.90;;;;;;4995554;28;20340;-82
2023/05/12 07:21:10;;;;;;;35.53;25.27;;;13.70;99.90;;;;;;4978230;28;20290;-81
2023/05/12 07:23:36;;;;;;;34.97;23.90;;;13.70;99.90;;;;;;4995079;28;20662;-81
2023/05/12 07:26:04;;;;;;;34.70;23.53;;;13.70;99.90;;;;;;4995297;28;20106;-81
2023/05/12 07:28:37;;;;;;;36.13;23.93;;;13.80;99.90;;;;;;4994019;28;20288;-82
2023/05/12 07:31:04;;;;;;;32.73;22.97;;;13.80;99.90;;;;;;4994190;28;20302;-82
2023/05/12 07:33:30;;;;;;;32.30;23.93;;;13.80;99.90;;;;;;4995214;28;20294;-82
2023/05/12 07:35:56;;;;;;;32.83;23.83;;;13.80;99.90;;;;;;4994805;28;20780;-82
2023/05/12 07:38:22;;;;;;;38.97;24.37;;;13.90;99.90;;;;;;4993914;28;20129;-82
2023/05/12 07:40:48;;;;;;;36.90;24.50;;;13.90;99.90;;;;;;4994166;28;20073;-79
2023/05/12 07:43:16;;;;;;;35.50;24.73;;;13.90;99.90;;;;;;4995516;28;20376;-80
2023/05/12 07:45:42;;;;;;;35.23;24.33;;;13.90;99.90;;;;;;4995075;28;20903;-80
2023/05/12 07:48:09;;;;;;;31.90;24.63;;;14.00;99.90;;;;;;4994292;28;20285;-73
2023/05/12 07:50:35;;;;;;;36.30;25.00;;;14.00;99.90;;;;;;4978392;28;20633;-82
2023/05/12 07:53:00;;;;;;;36.10;24.83;;;14.00;99.90;;;;;;4994405;28;20129;-82
2023/05/12 07:55:26;;;;;;;35.90;24.27;;;14.00;99.90;;;;;;4994811;28;20352;-82
2023/05/12 07:57:52;;;;;;;35.87;25.10;;;14.00;99.90;;;;;;4993579;28;20082;-82
2023/05/12 08:00:18;;;;;;;34.57;25.40;;;14.00;99.90;;;;;;4993660;28;20051;-84
2023/05/12 08:02:44;;;;;;;35.60;22.87;;;14.10;99.90;;;;;;4995541;28;20387;-80
2023/05/12 08:05:09;;;;;;;35.73;24.00;;;14.10;99.90;;;;;;4993730;28;20450;-86
2023/05/12 08:07:37;;;;;;;36.30;25.27;;;14.10;99.90;;;;;;4993624;28;20053;-83
2023/05/12 08:10:06;;;;;;;34.07;24.37;;;14.10;99.90;;;;;;4994757;28;20066;-85
2023/05/12 08:12:32;;;;;;;34.50;23.57;;;14.20;99.90;;;;;;4993626;28;20661;-79
2023/05/12 08:14:58;;;;;;;35.47;24.30;;;14.20;99.90;;;;;;4994986;28;20309;-79
2023/05/12 08:17:24;;;;;;;35.50;24.27;;;14.20;99.90;;;;;;4994442;28;20097;-76
2023/05/12 08:19:50;;;;;;;36.47;25.07;;;14.30;99.90;;;;;;4994380;28;20054;-80
2023/05/12 08:22:16;;;;;;;36.07;23.03;;;14.40;99.90;;;;;;4994195;28;20096;-78
2023/05/12 08:24:42;;;;;;;36.17;24.67;;;14.50;99.90;;;;;;4993894;28;20049;-78
2023/05/12 08:27:08;;;;;;;33.40;24.03;;;14.60;99.90;;;;;;4994426;28;20051;-80
2023/05/12 08:29:34;;;;;;;33.07;25.00;;;14.80;99.90;;;;;;4994046;28;20077;-80
2023/05/12 08:31:59;;;;;;;31.47;24.07;;;14.90;99.90;;;;;;4994036;28;20053;-79
2023/05/12 08:34:25;;;;;;;35.30;23.80;;;15.00;99.90;;;;;;4993682;28;20152;-78
2023/05/12 08:36:52;;;;;;;29.87;22.97;;;15.20;99.90;;;;;;4994058;28;20061;-78
2023/05/12 08:39:18;;;;;;;29.73;23.03;;;15.40;99.90;;;;;;4994187;28;20047;-78
2023/05/12 08:41:54;;;;;;;29.87;22.43;;;15.60;99.90;;;;;;4993282;28;20137;-79
2023/05/12 08:44:22;;;;;;;31.57;22.63;;;15.90;99.90;;;;;;4994308;28;20136;-78
2023/05/12 08:46:47;;;;;;;30.63;22.87;;;16.20;99.90;;;;;;4992400;28;20050;-74
2023/05/12 08:49:16;;;;;;;32.33;22.03;;;16.50;99.90;;;;;;4992887;28;20038;-70
2023/05/12 08:51:44;;;;;;;27.90;21.43;;;16.70;99.90;;;;;;4994452;28;20108;-74
2023/05/12 08:54:12;;;;;;;24.70;21.33;;;16.80;99.90;;;;;;4993970;28;20054;-74
2023/05/12 08:56:39;;;;;;;22.70;19.87;;;17.00;99.90;;;;;;4993945;28;20490;-73
2023/05/12 08:59:08;;;;;;;25.47;21.27;;;17.10;99.90;;;;;;4993888;28;20038;-73
2023/05/12 09:01:34;;;;;;;30.10;20.77;;;17.10;99.90;;;;;;4992921;28;20051;-72
2023/05/12 09:04:01;;;;;;;25.00;19.77;;;17.20;99.90;;;;;;4993952;28;20453;-73
2023/05/12 09:06:27;;;;;;;23.43;20.57;;;17.30;99.90;;;;;;4993648;28;20375;-72
2023/05/12 09:08:53;;;;;;;26.20;20.60;;;17.30;99.90;;;;;;4993651;28;20050;-72
2023/05/12 09:11:20;;;;;;;23.80;20.33;;;17.40;99.90;;;;;;4993919;28;20108;-74
2023/05/12 09:14:03;;;;;;;24.03;20.30;;;17.50;99.90;;;;;;4993763;28;20047;-70
2023/05/12 09:16:36;;;;;;;26.50;21.87;;;17.60;99.90;;;;;;4993847;28;20490;-71
2023/05/12 09:19:02;;;;;;;29.37;22.00;;;17.70;99.90;;;;;;4993852;28;20105;-73
2023/05/12 09:21:28;;;;;;;24.23;20.87;;;17.70;99.90;;;;;;4993837;28;20047;-80
2023/05/12 09:24:06;;;;;;;26.60;21.40;;;17.70;99.90;;;;;;4993312;28;20379;-76
2023/05/12 09:26:50;;;;;;;22.97;20.40;;;17.80;99.90;;;;;;4961854;28;20112;-76
2023/05/12 09:29:16;;;;;;;25.90;21.17;;;18.00;99.90;;;;;;4976412;28;20107;-77
2023/05/12 09:31:52;;;;;;;22.77;20.33;;;18.10;99.90;;;;;;4960346;28;20068;-77
2023/05/12 09:34:25;;;;;;;23.83;21.23;;;18.20;99.90;;;;;;4992277;28;20105;-72
2023/05/12 09:37:09;;;;;;;21.93;19.50;;;18.30;99.90;;;;;;4993640;28;20101;-71
2023/05/12 09:39:35;;;;;;;24.50;20.30;;;18.30;99.90;;;;;;4993895;28;20053;-75
2023/05/12 09:42:01;;;;;;;26.67;21.30;;;18.30;99.90;;;;;;4992502;28;20375;-71
2023/05/12 09:44:30;;;;;;;22.50;19.90;;;18.20;99.90;;;;;;4992813;28;20050;-71
2023/05/12 09:47:05;;;;;;;24.07;20.93;;;18.40;99.90;;;;;;4993750;28;20058;-70
2023/05/12 09:49:31;;;;;;;24.53;20.00;;;18.50;99.90;;;;;;4994277;28;20038;-71
2023/05/12 09:51:57;;;;;;;23.10;19.60;;;18.60;99.90;;;;;;4993104;28;20399;-71
2023/05/12 09:54:30;;;;;;;21.70;19.40;;;18.60;99.90;;;;;;4992544;28;20088;-71
2023/05/12 09:57:03;;;;;;;21.93;18.30;;;18.70;99.90;;;;;;4994209;28;20453;-71
2023/05/12 09:59:37;;;;;;;22.07;19.77;;;18.70;99.90;;;;;;4996461;28;20050;-70
2023/05/12 10:02:05;;;;;;;21.27;19.07;;;18.70;99.90;;;;;;4997671;28;20416;-70
2023/05/12 10:04:41;;;;;;;19.73;17.63;;;18.90;99.90;;;;;;4996761;28;20125;-71
2023/05/12 10:07:10;;;;;;;21.10;18.40;;;18.70;99.90;;;;;;4997419;28;20100;-71
2023/05/12 10:09:40;;;;;;;19.70;17.63;;;18.80;99.90;;;;;;4996699;28;20483;-70
2023/05/12 10:12:07;;;;;;;19.57;17.50;;;18.80;99.90;;;;;;4996236;28;20561;-70
2023/05/12 10:14:34;;;;;;;18.20;16.30;;;18.80;99.90;;;;;;4996632;28;20054;-70
2023/05/12 10:17:01;;;;;;;19.73;16.90;;;18.70;99.90;;;;;;4996807;28;20073;-71
2023/05/12 10:19:29;;;;;;;18.67;16.63;;;18.60;99.90;;;;;;4997322;28;20042;-71
2023/05/12 10:21:56;;;;;;;20.43;18.33;;;18.50;99.90;;;;;;4996428;28;20050;-71
2023/05/12 10:24:28;;;;;;;19.30;17.13;;;18.60;99.90;;;;;;4995938;28;20118;-71
2023/05/12 10:26:55;;;;;;;18.70;15.17;;;18.60;99.90;;;;;;4995732;28;20046;-71
2023/05/12 10:29:28;;;;;;;17.13;13.73;;;18.70;99.90;;;;;;4979267;28;20073;-78
2023/05/12 10:31:59;;;;;;;16.20;14.50;;;18.70;99.90;;;;;;4996353;28;20105;-71
2023/05/12 10:34:33;;;;;;;15.80;14.13;;;18.80;99.90;;;;;;4996069;28;20069;-71
2023/05/12 10:36:59;;;;;;;15.63;13.93;;;18.90;99.90;;;;;;4995438;28;20062;-71
2023/05/12 10:39:32;;;;;;;16.90;15.10;;;19.00;99.90;;;;;;4996465;28;20042;-75
2023/05/12 10:42:23;;;;;;;16.33;14.03;;;19.10;99.90;;;;;;4995195;28;20050;-71
2023/05/12 10:44:53;;;;;;;17.57;15.07;;;19.20;99.90;;;;;;4996103;28;20108;-76
2023/05/12 10:47:41;;;;;;;15.80;13.63;;;19.30;99.90;;;;;;4995739;28;20510;-76
2023/05/12 10:50:07;;;;;;;15.60;13.60;;;19.30;99.90;;;;;;4995376;28;20038;-76
2023/05/12 10:52:33;;;;;;;16.60;14.90;;;19.40;99.90;;;;;;4996125;28;20051;-78
2023/05/12 10:55:03;;;;;;;18.10;15.70;;;19.30;99.90;;;;;;4995785;28;20367;-78
2023/05/12 10:57:29;;;;;;;15.87;14.23;;;19.30;99.90;;;;;;4995799;28;20046;-77
2023/05/12 10:59:59;;;;;;;16.37;14.57;;;19.30;99.90;;;;;;4995037;28;20050;-79
2023/05/12 11:02:29;;;;;;;15.30;13.30;;;19.30;99.90;;;;;;4995819;28;20048;-76
2023/05/12 11:04:59;;;;;;;17.17;14.73;;;19.40;99.90;;;;;;4995771;28;20446;-76
2023/05/12 11:07:30;;;;;;;17.37;14.60;;;19.30;99.90;;;;;;4963105;28;20096;-73
2023/05/12 11:09:58;;;;;;;16.47;14.53;;;19.40;99.90;;;;;;4994010;28;20046;-72
2023/05/12 11:12:26;;;;;;;15.80;14.17;;;19.40;99.90;;;;;;4995456;28;20101;-73
2023/05/12 11:14:52;;;;;;;17.77;14.77;;;19.40;99.90;;;;;;4994199;28;20047;-77
2023/05/12 11:17:18;;;;;;;15.47;13.63;;;19.60;99.90;;;;;;4977499;28;20090;-82
2023/05/12 11:19:49;;;;;;;17.97;15.00;;;19.60;99.90;;;;;;4994245;28;20394;-76
2023/05/12 11:22:20;;;;;;;15.30;13.70;;;19.60;99.90;;;;;;4993965;28;20042;-77
2023/05/12 11:24:47;;;;;;;18.73;13.50;;;19.60;99.90;;;;;;4995274;28;20042;-80
2023/05/12 11:27:16;;;;;;;14.07;12.57;;;19.60;99.90;;;;;;4994489;28;20057;-76
2023/05/12 11:29:42;;;;;;;15.17;11.07;;;19.60;99.90;;;;;;4994197;28;20042;-76
2023/05/12 11:32:11;;;;;;;16.03;12.37;;;19.70;99.90;;;;;;4978075;28;20042;-79
2023/05/12 11:34:43;;;;;;;13.70;12.20;;;19.70;99.90;;;;;;4993975;28;20447;-76
2023/05/12 11:37:09;;;;;;;14.97;12.83;;;19.70;99.90;;;;;;4978140;28;20420;-76
2023/05/12 11:39:35;;;;;;;18.70;13.10;;;19.80;99.90;;;;;;4994654;28;20080;-76
2023/05/12 11:42:06;;;;;;;15.10;13.33;;;19.80;99.90;;;;;;4994833;28;20047;-75
2023/05/12 11:44:33;;;;;;;16.43;14.13;;;19.90;99.90;;;;;;4994352;28;20133;-76
2023/05/12 11:47:11;;;;;;;15.57;12.67;;;19.90;99.90;;;;;;4995201;28;20159;-75
2023/05/12 11:49:50;;;;;;;13.47;12.03;;;19.80;99.90;;;;;;4994137;28;20053;-75
2023/05/12 11:52:18;;;;;;;12.73;11.30;;;19.80;99.90;;;;;;4994828;28;20086;-75
2023/05/12 11:54:51;;;;;;;13.40;11.40;;;19.90;99.90;;;;;;4994883;28;20086;-75
2023/05/12 11:57:25;;;;;;;13.13;9.60;;;20.00;99.90;;;;;;4995318;28;20544;-75
2023/05/12 12:00:11;;;;;;;13.00;9.80;;;20.00;99.90;;;;;;4995252;28;20042;-77
2023/05/12 12:02:38;;;;;;;9.80;8.77;;;20.10;99.90;;;;;;4993099;28;20058;-76
2023/05/12 12:05:14;;;;;;;12.40;10.37;;;20.10;99.90;;;;;;4994666;28;20407;-76
2023/05/12 12:07:41;;;;;;;11.13;9.07;;;20.10;99.90;;;;;;4995214;28;20490;-76
2023/05/12 12:10:15;;;;;;;12.97;9.80;;;20.10;99.90;;;;;;4994527;28;20055;-75
2023/05/12 12:12:41;;;;;;;13.13;10.07;;;20.20;99.90;;;;;;4994520;28;20077;-74
2023/05/12 12:15:08;;;;;;;12.77;9.83;;;20.20;99.90;;;;;;4994454;28;20046;-75
2023/05/12 12:17:34;;;;;;;11.13;9.30;;;20.30;99.90;;;;;;4994973;28;20157;-75
2023/05/12 12:20:00;;;;;;;11.27;8.40;;;20.30;99.90;;;;;;4994435;28;20129;-76
2023/05/12 12:22:26;;;;;;;14.13;8.60;;;20.30;99.90;;;;;;4976727;28;20200;-75
2023/05/12 12:24:52;;;;;;;8.70;7.47;;;20.30;99.90;;;;;;4994369;28;20398;-80
2023/05/12 12:27:18;;;;;;;9.73;6.57;;;20.30;99.90;;;;;;4994364;28;20050;-75
2023/05/12 12:29:43;;;;;;;7.40;5.60;;;20.30;99.90;;;;;;4993933;28;20053;-75